UKOO/ODS METAR and TAF weather

Enter ICAO airport designator
Station Type Date Time Source
UKOO METAR 2018/12/19 03:00 UTC NOAA

UKOO 190300Z 03007MPS 360V060 9000 -SN OVC010 M04/M05 Q1026 R34/190058 NOSIG


Station Type Date Time Source
UKOO Decoded METAR 2018/12/19 03:00 UTC NOAA

Odesa, Ukraine (UKOO) 46-26N 030-46E 42M
Dec 18, 2018 - 10:00 PM EST / 2018.12.19 0300 UTC
Wind: from the NNE (030 degrees) at 16 MPH (14 KT) (direction variable):0
Visibility: 5 mile(s):0
Sky conditions: overcast
Weather: light snow
Temperature: 24 F (-4 C)
Windchill: 10 F (-12 C):1
Dew Point: 23 F (-5 C)
Relative Humidity: 92%
Pressure (altimeter): 30.30 in. Hg (1026 hPa)
ob: UKOO 190300Z 03007MPS 360V060 9000 -SN OVC010 M04/M05 Q1026 R34/190058 NOSIG
cycle: 3

Station Type Date Time Source
UKOO TAF 2018/12/18 18:12 UTC NOAA

TAF UKOO 181703Z 1818/1918 03006G12MPS 2100 -SHSN BR BKN007 SCT020CB TX00/1912Z TNM05/1904Z PROB40
TEMPO 1818/1906 1000 SHSN BR BKN003 SCT017CB


Example: see airport list